sensor_id;sensor_type;location;lat;lon;timestamp;temperature;humidity
66576;SHT31;53428;47.686;16.584;2023-02-01T00:03:02;5.21;72.10
66576;SHT31;53428;47.686;16.584;2023-02-01T00:08:01;5.35;71.47
66576;SHT31;53428;47.686;16.584;2023-02-01T00:13:00;5.74;70.59
66576;SHT31;53428;47.686;16.584;2023-02-01T00:18:00;5.87;69.95
66576;SHT31;53428;47.686;16.584;2023-02-01T00:22:59;5.87;69.89
66576;SHT31;53428;47.686;16.584;2023-02-01T00:27:58;5.87;70.07
66576;SHT31;53428;47.686;16.584;2023-02-01T00:32:58;5.97;69.62
66576;SHT31;53428;47.686;16.584;2023-02-01T00:37:57;6.18;68.74
66576;SHT31;53428;47.686;16.584;2023-02-01T00:42:58;6.30;68.48
66576;SHT31;53428;47.686;16.584;2023-02-01T00:47:57;6.32;68.48
66576;SHT31;53428;47.686;16.584;2023-02-01T00:52:56;6.26;68.84
66576;SHT31;53428;47.686;16.584;2023-02-01T00:57:56;6.25;68.80
66576;SHT31;53428;47.686;16.584;2023-02-01T01:02:55;6.29;68.51
66576;SHT31;53428;47.686;16.584;2023-02-01T01:07:55;6.38;68.52
66576;SHT31;53428;47.686;16.584;2023-02-01T01:12:54;6.39;68.52
66576;SHT31;53428;47.686;16.584;2023-02-01T01:17:53;6.30;69.07
66576;SHT31;53428;47.686;16.584;2023-02-01T01:22:53;6.42;68.75
66576;SHT31;53428;47.686;16.584;2023-02-01T01:27:52;6.32;69.25
66576;SHT31;53428;47.686;16.584;2023-02-01T01:32:52;6.60;68.25
66576;SHT31;53428;47.686;16.584;2023-02-01T01:37:51;6.39;69.11
66576;SHT31;53428;47.686;16.584;2023-02-01T01:42:51;6.53;68.56
66576;SHT31;53428;47.686;16.584;2023-02-01T01:52:59;6.66;67.74
66576;SHT31;53428;47.686;16.584;2023-02-01T01:58:06;6.53;68.17
66576;SHT31;53428;47.686;16.584;2023-02-01T02:03:18;6.63;67.60
66576;SHT31;53428;47.686;16.584;2023-02-01T02:08:19;6.53;68.25
66576;SHT31;53428;47.686;16.584;2023-02-01T02:13:19;6.62;67.93
66576;SHT31;53428;47.686;16.584;2023-02-01T02:18:27;6.56;68.25
66576;SHT31;53428;47.686;16.584;2023-02-01T02:45:27;6.17;69.80
66576;SHT31;53428;47.686;16.584;2023-02-01T02:56:12;5.81;71.11
66576;SHT31;53428;47.686;16.584;2023-02-01T03:01:31;6.00;70.41
66576;SHT31;53428;47.686;16.584;2023-02-01T03:06:49;5.81;70.99
66576;SHT31;53428;47.686;16.584;2023-02-01T03:11:51;5.75;71.31
66576;SHT31;53428;47.686;16.584;2023-02-01T03:17:15;5.49;72.13
66576;SHT31;53428;47.686;16.584;2023-02-01T03:22:24;5.36;72.93
66576;SHT31;53428;47.686;16.584;2023-02-01T03:27:43;5.33;73.39
66576;SHT31;53428;47.686;16.584;2023-02-01T03:32:47;5.36;73.80
66576;SHT31;53428;47.686;16.584;2023-02-01T03:38:21;5.21;74.92
66576;SHT31;53428;47.686;16.584;2023-02-01T03:43:23;5.09;76.03
66576;SHT31;53428;47.686;16.584;2023-02-01T03:48:27;5.32;75.93
66576;SHT31;53428;47.686;16.584;2023-02-01T03:53:28;5.38;75.39
66576;SHT31;53428;47.686;16.584;2023-02-01T03:58:28;5.53;74.02
66576;SHT31;53428;47.686;16.584;2023-02-01T04:03:28;5.56;73.76
66576;SHT31;53428;47.686;16.584;2023-02-01T04:08:28;5.54;73.49
66576;SHT31;53428;47.686;16.584;2023-02-01T04:13:27;5.52;73.41
66576;SHT31;53428;47.686;16.584;2023-02-01T04:18:26;5.54;72.73
66576;SHT31;53428;47.686;16.584;2023-02-01T04:23:26;5.50;72.60
66576;SHT31;53428;47.686;16.584;2023-02-01T04:28:25;5.44;72.38
66576;SHT31;53428;47.686;16.584;2023-02-01T04:33:24;5.44;72.23
66576;SHT31;53428;47.686;16.584;2023-02-01T04:38:24;5.57;71.32
66576;SHT31;53428;47.686;16.584;2023-02-01T04:43:23;5.50;71.33
66576;SHT31;53428;47.686;16.584;2023-02-01T04:48:23;5.19;72.31
66576;SHT31;53428;47.686;16.584;2023-02-01T04:53:22;4.67;74.22
66576;SHT31;53428;47.686;16.584;2023-02-01T04:58:22;4.47;74.90
66576;SHT31;53428;47.686;16.584;2023-02-01T05:03:21;4.29;75.63
66576;SHT31;53428;47.686;16.584;2023-02-01T05:08:20;4.12;75.90
66576;SHT31;53428;47.686;16.584;2023-02-01T05:13:22;3.91;76.64
66576;SHT31;53428;47.686;16.584;2023-02-01T05:18:40;4.08;75.88
66576;SHT31;53428;47.686;16.584;2023-02-01T05:23:39;4.33;74.78
66576;SHT31;53428;47.686;16.584;2023-02-01T05:28:57;4.54;73.92
66576;SHT31;53428;47.686;16.584;2023-02-01T05:33:56;4.94;72.27
66576;SHT31;53428;47.686;16.584;2023-02-01T05:38:55;5.19;71.57
66576;SHT31;53428;47.686;16.584;2023-02-01T05:43:55;5.49;70.59
66576;SHT31;53428;47.686;16.584;2023-02-01T05:48:54;5.80;69.74
66576;SHT31;53428;47.686;16.584;2023-02-01T05:53:53;5.67;70.17
66576;SHT31;53428;47.686;16.584;2023-02-01T05:58:53;5.49;71.03
66576;SHT31;53428;47.686;16.584;2023-02-01T06:03:52;5.29;71.86
66576;SHT31;53428;47.686;16.584;2023-02-01T06:08:51;5.21;72.32
66576;SHT31;53428;47.686;16.584;2023-02-01T06:13:51;4.92;73.37
66576;SHT31;53428;47.686;16.584;2023-02-01T06:18:50;5.05;73.19
66576;SHT31;53428;47.686;16.584;2023-02-01T06:23:51;4.98;73.98
66576;SHT31;53428;47.686;16.584;2023-02-01T06:28:50;5.09;74.69
66576;SHT31;53428;47.686;16.584;2023-02-01T06:33:51;5.38;74.58
66576;SHT31;53428;47.686;16.584;2023-02-01T06:38:50;5.56;74.50
66576;SHT31;53428;47.686;16.584;2023-02-01T06:43:49;5.64;74.43
66576;SHT31;53428;47.686;16.584;2023-02-01T06:48:48;5.71;74.49
66576;SHT31;53428;47.686;16.584;2023-02-01T06:53:50;5.71;74.39
66576;SHT31;53428;47.686;16.584;2023-02-01T06:58:50;5.69;74.67
66576;SHT31;53428;47.686;16.584;2023-02-01T07:03:50;5.67;74.72
66576;SHT31;53428;47.686;16.584;2023-02-01T07:08:50;5.95;72.97
66576;SHT31;53428;47.686;16.584;2023-02-01T07:13:49;6.04;72.66
66576;SHT31;53428;47.686;16.584;2023-02-01T07:18:50;6.15;71.97
66576;SHT31;53428;47.686;16.584;2023-02-01T07:23:49;6.26;71.32
66576;SHT31;53428;47.686;16.584;2023-02-01T07:28:48;6.49;70.28
66576;SHT31;53428;47.686;16.584;2023-02-01T07:33:49;6.56;70.17
66576;SHT31;53428;47.686;16.584;2023-02-01T07:38:50;6.75;69.54
66576;SHT31;53428;47.686;16.584;2023-02-01T07:43:55;6.98;68.26
66576;SHT31;53428;47.686;16.584;2023-02-01T07:48:59;7.03;68.03
66576;SHT31;53428;47.686;16.584;2023-02-01T07:53:59;7.08;67.72
66576;SHT31;53428;47.686;16.584;2023-02-01T07:58:58;7.15;67.69
66576;SHT31;53428;47.686;16.584;2023-02-01T08:04:01;7.34;67.23
66576;SHT31;53428;47.686;16.584;2023-02-01T08:09:02;7.65;66.03
66576;SHT31;53428;47.686;16.584;2023-02-01T08:14:02;7.70;66.20
66576;SHT31;53428;47.686;16.584;2023-02-01T08:19:01;7.72;65.46
66576;SHT31;53428;47.686;16.584;2023-02-01T08:24:01;7.79;65.37
66576;SHT31;53428;47.686;16.584;2023-02-01T08:29:03;7.97;65.09
66576;SHT31;53428;47.686;16.584;2023-02-01T08:34:02;8.12;65.03
66576;SHT31;53428;47.686;16.584;2023-02-01T08:39:05;8.17;64.39
66576;SHT31;53428;47.686;16.584;2023-02-01T08:44:07;8.25;63.87
66576;SHT31;53428;47.686;16.584;2023-02-01T08:49:07;8.27;63.73
66576;SHT31;53428;47.686;16.584;2023-02-01T08:54:06;8.44;63.41
66576;SHT31;53428;47.686;16.584;2023-02-01T08:59:05;8.58;62.71
66576;SHT31;53428;47.686;16.584;2023-02-01T09:04:04;8.81;61.96
66576;SHT31;53428;47.686;16.584;2023-02-01T09:09:04;8.89;61.60
66576;SHT31;53428;47.686;16.584;2023-02-01T09:14:03;9.03;60.79
66576;SHT31;53428;47.686;16.584;2023-02-01T09:19:02;9.08;60.09
66576;SHT31;53428;47.686;16.584;2023-02-01T09:24:02;9.07;59.80
66576;SHT31;53428;47.686;16.584;2023-02-01T09:29:01;9.20;59.16
66576;SHT31;53428;47.686;16.584;2023-02-01T09:34:03;9.30;59.48
66576;SHT31;53428;47.686;16.584;2023-02-01T09:39:03;9.41;58.91
66576;SHT31;53428;47.686;16.584;2023-02-01T09:55:01;8.89;60.30
66576;SHT31;53428;47.686;16.584;2023-02-01T10:00:17;8.91;60.24
66576;SHT31;53428;47.686;16.584;2023-02-01T10:05:41;8.83;60.57
66576;SHT31;53428;47.686;16.584;2023-02-01T10:10:49;8.73;60.92
66576;SHT31;53428;47.686;16.584;2023-02-01T10:16:03;8.59;60.45
66576;SHT31;53428;47.686;16.584;2023-02-01T10:26:29;8.80;61.59
66576;SHT31;53428;47.686;16.584;2023-02-01T10:31:33;8.93;63.54
66576;SHT31;53428;47.686;16.584;2023-02-01T10:36:34;8.91;63.36
66576;SHT31;53428;47.686;16.584;2023-02-01T10:41:40;9.00;65.10
66576;SHT31;53428;47.686;16.584;2023-02-01T10:46:39;9.21;62.74
66576;SHT31;53428;47.686;16.584;2023-02-01T10:51:47;9.21;62.94
66576;SHT31;53428;47.686;16.584;2023-02-01T10:56:49;9.17;63.00
66576;SHT31;53428;47.686;16.584;2023-02-01T11:01:49;9.31;63.97
66576;SHT31;53428;47.686;16.584;2023-02-01T11:06:53;9.21;64.65
66576;SHT31;53428;47.686;16.584;2023-02-01T11:11:59;9.34;64.82
66576;SHT31;53428;47.686;16.584;2023-02-01T11:17:01;9.27;65.25
66576;SHT31;53428;47.686;16.584;2023-02-01T11:22:01;9.24;65.26
66576;SHT31;53428;47.686;16.584;2023-02-01T11:27:03;9.06;65.47
66576;SHT31;53428;47.686;16.584;2023-02-01T11:32:03;9.16;64.95
66576;SHT31;53428;47.686;16.584;2023-02-01T11:37:03;9.30;64.53
66576;SHT31;53428;47.686;16.584;2023-02-01T11:42:12;9.68;64.13
66576;SHT31;53428;47.686;16.584;2023-02-01T11:47:24;9.75;64.11
66576;SHT31;53428;47.686;16.584;2023-02-01T12:18:53;9.95;63.81
66576;SHT31;53428;47.686;16.584;2023-02-01T12:29:32;9.51;65.06
66576;SHT31;53428;47.686;16.584;2023-02-01T12:39:50;8.83;69.18
66576;SHT31;53428;47.686;16.584;2023-02-01T12:44:57;7.82;71.68
66576;SHT31;53428;47.686;16.584;2023-02-01T12:50:22;7.53;72.53
66576;SHT31;53428;47.686;16.584;2023-02-01T12:55:35;7.36;73.62
66576;SHT31;53428;47.686;16.584;2023-02-01T13:00:40;7.80;73.66
66576;SHT31;53428;47.686;16.584;2023-02-01T13:11:38;7.42;76.28
66576;SHT31;53428;47.686;16.584;2023-02-01T13:16:44;7.32;77.69
66576;SHT31;53428;47.686;16.584;2023-02-01T13:22:22;9.03;71.96
66576;SHT31;53428;47.686;16.584;2023-02-01T13:27:27;10.52;66.15
66576;SHT31;53428;47.686;16.584;2023-02-01T13:43:16;8.70;71.71
66576;SHT31;53428;47.686;16.584;2023-02-01T13:48:25;8.17;71.28
66576;SHT31;53428;47.686;16.584;2023-02-01T13:53:31;7.35;73.84
66576;SHT31;53428;47.686;16.584;2023-02-01T13:58:37;7.00;75.19
66576;SHT31;53428;47.686;16.584;2023-02-01T14:19:29;5.04;83.43
66576;SHT31;53428;47.686;16.584;2023-02-01T14:24:32;4.74;84.69
66576;SHT31;53428;47.686;16.584;2023-02-01T14:29:35;4.28;95.16
66576;SHT31;53428;47.686;16.584;2023-02-01T14:44:46;3.60;96.21
66576;SHT31;53428;47.686;16.584;2023-02-01T14:54:55;3.51;97.22
66576;SHT31;53428;47.686;16.584;2023-02-01T15:00:27;3.39;97.68
66576;SHT31;53428;47.686;16.584;2023-02-01T15:05:32;3.41;97.96
66576;SHT31;53428;47.686;16.584;2023-02-01T15:10:33;3.30;97.39
66576;SHT31;53428;47.686;16.584;2023-02-01T15:15:38;3.18;97.84
66576;SHT31;53428;47.686;16.584;2023-02-01T15:20:38;3.15;97.68
66576;SHT31;53428;47.686;16.584;2023-02-01T15:25:38;3.16;97.02
66576;SHT31;53428;47.686;16.584;2023-02-01T15:30:37;3.33;95.83
66576;SHT31;53428;47.686;16.584;2023-02-01T15:35:43;3.39;95.44
66576;SHT31;53428;47.686;16.584;2023-02-01T15:46:02;3.63;93.29
66576;SHT31;53428;47.686;16.584;2023-02-01T15:51:03;3.61;93.67
66576;SHT31;53428;47.686;16.584;2023-02-01T15:56:04;3.75;91.90
66576;SHT31;53428;47.686;16.584;2023-02-01T16:01:05;3.88;90.75
66576;SHT31;53428;47.686;16.584;2023-02-01T16:06:12;3.94;90.11
66576;SHT31;53428;47.686;16.584;2023-02-01T16:11:31;3.99;89.11
66576;SHT31;53428;47.686;16.584;2023-02-01T16:16:31;4.06;88.43
66576;SHT31;53428;47.686;16.584;2023-02-01T16:21:31;4.19;87.50
66576;SHT31;53428;47.686;16.584;2023-02-01T16:26:32;4.32;86.12
66576;SHT31;53428;47.686;16.584;2023-02-01T16:31:35;4.39;86.37
66576;SHT31;53428;47.686;16.584;2023-02-01T16:36:34;4.44;85.66
66576;SHT31;53428;47.686;16.584;2023-02-01T16:41:34;4.67;84.55
66576;SHT31;53428;47.686;16.584;2023-02-01T16:46:39;4.67;83.99
66576;SHT31;53428;47.686;16.584;2023-02-01T16:51:40;4.91;82.16
66576;SHT31;53428;47.686;16.584;2023-02-01T16:56:40;4.83;83.27
66576;SHT31;53428;47.686;16.584;2023-02-01T17:01:41;4.77;83.39
66576;SHT31;53428;47.686;16.584;2023-02-01T17:06:41;4.70;83.94
66576;SHT31;53428;47.686;16.584;2023-02-01T17:11:41;4.78;83.08
66576;SHT31;53428;47.686;16.584;2023-02-01T17:16:41;4.84;82.81
66576;SHT31;53428;47.686;16.584;2023-02-01T17:21:50;4.77;83.43
66576;SHT31;53428;47.686;16.584;2023-02-01T17:26:51;4.77;83.46
66576;SHT31;53428;47.686;16.584;2023-02-01T17:31:53;4.89;82.88
66576;SHT31;53428;47.686;16.584;2023-02-01T17:36:53;4.96;82.24
66576;SHT31;53428;47.686;16.584;2023-02-01T17:41:53;4.98;82.17
66576;SHT31;53428;47.686;16.584;2023-02-01T17:46:52;5.18;81.04
66576;SHT31;53428;47.686;16.584;2023-02-01T17:51:57;5.29;80.51
66576;SHT31;53428;47.686;16.584;2023-02-01T17:56:56;5.31;80.39
66576;SHT31;53428;47.686;16.584;2023-02-01T18:02:01;5.33;80.29
66576;SHT31;53428;47.686;16.584;2023-02-01T18:07:01;5.36;79.74
66576;SHT31;53428;47.686;16.584;2023-02-01T18:12:03;5.18;81.10
66576;SHT31;53428;47.686;16.584;2023-02-01T18:17:03;5.16;81.07
66576;SHT31;53428;47.686;16.584;2023-02-01T18:22:03;5.16;80.78
66576;SHT31;53428;47.686;16.584;2023-02-01T18:27:03;5.12;80.97
66576;SHT31;53428;47.686;16.584;2023-02-01T18:32:03;4.99;81.58
66576;SHT31;53428;47.686;16.584;2023-02-01T18:37:03;4.87;82.11
66576;SHT31;53428;47.686;16.584;2023-02-01T18:42:03;4.78;82.42
66576;SHT31;53428;47.686;16.584;2023-02-01T18:47:03;4.77;81.86
66576;SHT31;53428;47.686;16.584;2023-02-01T18:52:02;4.89;80.98
66576;SHT31;53428;47.686;16.584;2023-02-01T18:57:02;4.99;80.13
66576;SHT31;53428;47.686;16.584;2023-02-01T19:02:02;5.05;79.59
66576;SHT31;53428;47.686;16.584;2023-02-01T19:07:02;5.19;78.15
66576;SHT31;53428;47.686;16.584;2023-02-01T19:12:02;5.31;76.89
66576;SHT31;53428;47.686;16.584;2023-02-01T19:17:03;5.35;76.79
66576;SHT31;53428;47.686;16.584;2023-02-01T19:22:03;5.26;76.74
66576;SHT31;53428;47.686;16.584;2023-02-01T19:27:06;5.28;76.50
66576;SHT31;53428;47.686;16.584;2023-02-01T19:32:08;5.32;76.15
66576;SHT31;53428;47.686;16.584;2023-02-01T19:37:08;5.33;75.93
66576;SHT31;53428;47.686;16.584;2023-02-01T19:42:08;5.33;76.01
66576;SHT31;53428;47.686;16.584;2023-02-01T19:47:08;5.38;75.65
66576;SHT31;53428;47.686;16.584;2023-02-01T19:52:08;5.28;76.00
66576;SHT31;53428;47.686;16.584;2023-02-01T19:57:08;5.28;75.46
66576;SHT31;53428;47.686;16.584;2023-02-01T20:02:14;5.43;74.58
66576;SHT31;53428;47.686;16.584;2023-02-01T20:07:15;5.49;73.87
66576;SHT31;53428;47.686;16.584;2023-02-01T20:12:15;5.44;74.06
66576;SHT31;53428;47.686;16.584;2023-02-01T20:17:15;5.43;73.84
66576;SHT31;53428;47.686;16.584;2023-02-01T20:22:17;5.40;73.98
66576;SHT31;53428;47.686;16.584;2023-02-01T20:27:17;5.49;73.44
66576;SHT31;53428;47.686;16.584;2023-02-01T20:32:17;5.40;73.64
66576;SHT31;53428;47.686;16.584;2023-02-01T20:37:17;5.54;72.68
66576;SHT31;53428;47.686;16.584;2023-02-01T20:42:18;5.57;72.52
66576;SHT31;53428;47.686;16.584;2023-02-01T20:47:18;5.67;71.97
66576;SHT31;53428;47.686;16.584;2023-02-01T20:52:17;5.70;71.57
66576;SHT31;53428;47.686;16.584;2023-02-01T20:57:17;5.60;71.93
66576;SHT31;53428;47.686;16.584;2023-02-01T21:02:16;5.56;72.23
66576;SHT31;53428;47.686;16.584;2023-02-01T21:07:16;5.64;71.80
66576;SHT31;53428;47.686;16.584;2023-02-01T21:12:15;5.69;71.63
66576;SHT31;53428;47.686;16.584;2023-02-01T21:17:15;5.61;71.38
66576;SHT31;53428;47.686;16.584;2023-02-01T21:22:15;5.90;69.59
66576;SHT31;53428;47.686;16.584;2023-02-01T21:27:15;5.90;69.59
66576;SHT31;53428;47.686;16.584;2023-02-01T21:32:16;6.08;68.54
66576;SHT31;53428;47.686;16.584;2023-02-01T21:37:15;6.02;68.40
66576;SHT31;53428;47.686;16.584;2023-02-01T21:42:14;6.17;67.90
66576;SHT31;53428;47.686;16.584;2023-02-01T21:47:21;6.21;67.64
66576;SHT31;53428;47.686;16.584;2023-02-01T21:52:21;6.22;67.66
66576;SHT31;53428;47.686;16.584;2023-02-01T21:57:20;6.30;67.47
66576;SHT31;53428;47.686;16.584;2023-02-01T22:02:19;6.30;67.03
66576;SHT31;53428;47.686;16.584;2023-02-01T22:07:19;6.46;66.49
66576;SHT31;53428;47.686;16.584;2023-02-01T22:12:18;6.49;66.30
66576;SHT31;53428;47.686;16.584;2023-02-01T22:17:18;6.52;66.01
66576;SHT31;53428;47.686;16.584;2023-02-01T22:22:17;6.39;66.82
66576;SHT31;53428;47.686;16.584;2023-02-01T22:27:16;6.24;67.98
66576;SHT31;53428;47.686;16.584;2023-02-01T22:32:15;6.17;68.25
66576;SHT31;53428;47.686;16.584;2023-02-01T22:37:15;6.19;68.04
66576;SHT31;53428;47.686;16.584;2023-02-01T22:42:14;6.09;69.07
66576;SHT31;53428;47.686;16.584;2023-02-01T22:47:14;6.05;69.05
66576;SHT31;53428;47.686;16.584;2023-02-01T22:52:15;6.18;68.08
66576;SHT31;53428;47.686;16.584;2023-02-01T22:57:14;6.26;68.27
66576;SHT31;53428;47.686;16.584;2023-02-01T23:02:13;6.18;69.19
66576;SHT31;53428;47.686;16.584;2023-02-01T23:07:13;6.15;69.82
66576;SHT31;53428;47.686;16.584;2023-02-01T23:12:12;6.14;69.68
66576;SHT31;53428;47.686;16.584;2023-02-01T23:17:11;6.07;69.99
66576;SHT31;53428;47.686;16.584;2023-02-01T23:22:11;6.15;69.00
66576;SHT31;53428;47.686;16.584;2023-02-01T23:27:10;6.24;68.85
66576;SHT31;53428;47.686;16.584;2023-02-01T23:32:10;6.24;69.28
66576;SHT31;53428;47.686;16.584;2023-02-01T23:37:09;6.24;69.32
66576;SHT31;53428;47.686;16.584;2023-02-01T23:42:08;6.15;69.93
66576;SHT31;53428;47.686;16.584;2023-02-01T23:47:09;6.19;69.81
66576;SHT31;53428;47.686;16.584;2023-02-01T23:52:09;6.26;69.58
66576;SHT31;53428;47.686;16.584;2023-02-01T23:57:08;6.19;70.11
